sensor_id;sensor_type;location;lat;lon;timestamp;P1;durP1;ratioP1;P2;durP2;ratioP2
18695;SDS011;22617;43.690;27.956;2023-03-01T00:00:25;20.83;;;8.37;;
18695;SDS011;22617;43.690;27.956;2023-03-01T00:05:32;16.67;;;8.00;;
18695;SDS011;22617;43.690;27.956;2023-03-01T00:10:37;17.67;;;8.80;;
18695;SDS011;22617;43.690;27.956;2023-03-01T00:15:41;18.63;;;7.93;;
18695;SDS011;22617;43.690;27.956;2023-03-01T00:20:50;17.10;;;8.23;;
18695;SDS011;22617;43.690;27.956;2023-03-01T00:25:55;19.23;;;8.70;;
18695;SDS011;22617;43.690;27.956;2023-03-01T00:31:02;20.67;;;8.20;;
18695;SDS011;22617;43.690;27.956;2023-03-01T00:36:11;19.50;;;8.33;;
18695;SDS011;22617;43.690;27.956;2023-03-01T00:41:17;19.70;;;8.40;;
18695;SDS011;22617;43.690;27.956;2023-03-01T00:46:24;22.47;;;9.90;;
18695;SDS011;22617;43.690;27.956;2023-03-01T00:51:36;25.23;;;10.77;;
18695;SDS011;22617;43.690;27.956;2023-03-01T00:56:43;24.63;;;11.80;;
18695;SDS011;22617;43.690;27.956;2023-03-01T01:01:48;28.03;;;11.67;;
18695;SDS011;22617;43.690;27.956;2023-03-01T01:06:56;29.13;;;11.77;;
18695;SDS011;22617;43.690;27.956;2023-03-01T01:12:05;28.10;;;11.63;;
18695;SDS011;22617;43.690;27.956;2023-03-01T01:17:10;26.10;;;10.77;;
18695;SDS011;22617;43.690;27.956;2023-03-01T01:22:17;29.70;;;12.27;;
18695;SDS011;22617;43.690;27.956;2023-03-01T01:27:23;28.17;;;11.67;;
18695;SDS011;22617;43.690;27.956;2023-03-01T01:32:29;25.50;;;11.90;;
18695;SDS011;22617;43.690;27.956;2023-03-01T01:37:37;31.97;;;12.50;;
18695;SDS011;22617;43.690;27.956;2023-03-01T01:42:44;31.13;;;12.17;;
18695;SDS011;22617;43.690;27.956;2023-03-01T01:47:51;29.77;;;12.13;;
18695;SDS011;22617;43.690;27.956;2023-03-01T01:53:01;34.50;;;13.53;;
18695;SDS011;22617;43.690;27.956;2023-03-01T01:58:14;31.10;;;14.03;;
18695;SDS011;22617;43.690;27.956;2023-03-01T02:03:23;34.60;;;14.03;;
18695;SDS011;22617;43.690;27.956;2023-03-01T02:08:35;32.50;;;13.10;;
18695;SDS011;22617;43.690;27.956;2023-03-01T02:13:41;33.23;;;12.37;;
18695;SDS011;22617;43.690;27.956;2023-03-01T02:18:50;32.80;;;12.73;;
18695;SDS011;22617;43.690;27.956;2023-03-01T02:23:59;30.07;;;13.03;;
18695;SDS011;22617;43.690;27.956;2023-03-01T02:29:16;29.10;;;12.40;;
18695;SDS011;22617;43.690;27.956;2023-03-01T02:34:23;29.53;;;13.17;;
18695;SDS011;22617;43.690;27.956;2023-03-01T02:39:31;31.40;;;12.77;;
18695;SDS011;22617;43.690;27.956;2023-03-01T02:44:45;33.97;;;13.50;;
18695;SDS011;22617;43.690;27.956;2023-03-01T02:49:51;29.93;;;12.63;;
18695;SDS011;22617;43.690;27.956;2023-03-01T02:54:58;34.70;;;13.87;;
18695;SDS011;22617;43.690;27.956;2023-03-01T03:00:08;37.73;;;14.47;;
18695;SDS011;22617;43.690;27.956;2023-03-01T03:05:23;31.43;;;13.13;;
18695;SDS011;22617;43.690;27.956;2023-03-01T03:10:35;32.67;;;13.80;;
18695;SDS011;22617;43.690;27.956;2023-03-01T03:15:44;34.73;;;14.07;;
18695;SDS011;22617;43.690;27.956;2023-03-01T03:20:50;32.80;;;13.40;;
18695;SDS011;22617;43.690;27.956;2023-03-01T03:25:56;35.43;;;13.40;;
18695;SDS011;22617;43.690;27.956;2023-03-01T03:31:05;32.80;;;14.13;;
18695;SDS011;22617;43.690;27.956;2023-03-01T03:36:09;40.87;;;15.40;;
18695;SDS011;22617;43.690;27.956;2023-03-01T03:41:20;34.43;;;13.23;;
18695;SDS011;22617;43.690;27.956;2023-03-01T03:46:27;36.07;;;14.33;;
18695;SDS011;22617;43.690;27.956;2023-03-01T03:51:51;37.00;;;14.43;;
18695;SDS011;22617;43.690;27.956;2023-03-01T03:56:56;36.00;;;14.80;;
18695;SDS011;22617;43.690;27.956;2023-03-01T04:02:06;36.80;;;15.13;;
18695;SDS011;22617;43.690;27.956;2023-03-01T04:07:11;36.90;;;14.70;;
18695;SDS011;22617;43.690;27.956;2023-03-01T04:12:19;35.63;;;14.33;;
18695;SDS011;22617;43.690;27.956;2023-03-01T04:17:43;32.07;;;13.73;;
18695;SDS011;22617;43.690;27.956;2023-03-01T04:22:52;37.67;;;14.30;;
18695;SDS011;22617;43.690;27.956;2023-03-01T04:28:01;34.20;;;15.57;;
18695;SDS011;22617;43.690;27.956;2023-03-01T04:33:10;33.60;;;13.77;;
18695;SDS011;22617;43.690;27.956;2023-03-01T04:38:18;32.90;;;14.73;;
18695;SDS011;22617;43.690;27.956;2023-03-01T04:43:25;35.90;;;14.80;;
18695;SDS011;22617;43.690;27.956;2023-03-01T04:48:32;35.57;;;14.57;;
18695;SDS011;22617;43.690;27.956;2023-03-01T04:53:41;38.47;;;15.90;;
18695;SDS011;22617;43.690;27.956;2023-03-01T04:58:49;37.53;;;16.10;;
18695;SDS011;22617;43.690;27.956;2023-03-01T05:04:00;37.70;;;16.07;;
18695;SDS011;22617;43.690;27.956;2023-03-01T05:09:08;36.73;;;15.83;;
18695;SDS011;22617;43.690;27.956;2023-03-01T05:21:26;37.13;;;16.03;;
18695;SDS011;22617;43.690;27.956;2023-03-01T05:26:29;36.10;;;16.13;;
18695;SDS011;22617;43.690;27.956;2023-03-01T05:31:33;35.77;;;15.53;;
18695;SDS011;22617;43.690;27.956;2023-03-01T05:36:37;34.87;;;15.93;;
18695;SDS011;22617;43.690;27.956;2023-03-01T05:41:41;33.37;;;15.63;;
18695;SDS011;22617;43.690;27.956;2023-03-01T05:46:45;31.73;;;14.73;;
18695;SDS011;22617;43.690;27.956;2023-03-01T05:51:51;38.43;;;17.30;;
18695;SDS011;22617;43.690;27.956;2023-03-01T05:56:55;36.53;;;15.57;;
18695;SDS011;22617;43.690;27.956;2023-03-01T06:01:59;46.90;;;18.73;;
18695;SDS011;22617;43.690;27.956;2023-03-01T06:07:04;37.33;;;17.03;;
18695;SDS011;22617;43.690;27.956;2023-03-01T06:12:08;38.07;;;16.13;;
18695;SDS011;22617;43.690;27.956;2023-03-01T06:17:14;39.67;;;16.57;;
18695;SDS011;22617;43.690;27.956;2023-03-01T06:22:19;35.33;;;15.83;;
18695;SDS011;22617;43.690;27.956;2023-03-01T06:27:23;39.60;;;17.40;;
18695;SDS011;22617;43.690;27.956;2023-03-01T06:32:26;39.10;;;16.73;;
18695;SDS011;22617;43.690;27.956;2023-03-01T06:37:31;42.50;;;17.23;;
18695;SDS011;22617;43.690;27.956;2023-03-01T06:42:37;43.00;;;17.47;;
18695;SDS011;22617;43.690;27.956;2023-03-01T06:47:41;38.63;;;17.20;;
18695;SDS011;22617;43.690;27.956;2023-03-01T06:52:46;40.37;;;17.43;;
18695;SDS011;22617;43.690;27.956;2023-03-01T06:57:53;37.53;;;16.13;;
18695;SDS011;22617;43.690;27.956;2023-03-01T07:02:58;39.17;;;16.23;;
18695;SDS011;22617;43.690;27.956;2023-03-01T07:08:05;37.10;;;16.50;;
18695;SDS011;22617;43.690;27.956;2023-03-01T07:13:08;38.93;;;15.83;;
18695;SDS011;22617;43.690;27.956;2023-03-01T07:18:12;41.37;;;15.83;;
18695;SDS011;22617;43.690;27.956;2023-03-01T07:23:16;41.33;;;17.53;;
18695;SDS011;22617;43.690;27.956;2023-03-01T07:28:20;47.10;;;17.80;;
18695;SDS011;22617;43.690;27.956;2023-03-01T07:33:25;45.83;;;18.17;;
18695;SDS011;22617;43.690;27.956;2023-03-01T07:38:30;37.50;;;16.50;;
18695;SDS011;22617;43.690;27.956;2023-03-01T07:43:33;43.23;;;17.67;;
18695;SDS011;22617;43.690;27.956;2023-03-01T07:48:37;43.80;;;17.37;;
18695;SDS011;22617;43.690;27.956;2023-03-01T07:53:42;40.73;;;18.03;;
18695;SDS011;22617;43.690;27.956;2023-03-01T07:58:48;43.07;;;18.77;;
18695;SDS011;22617;43.690;27.956;2023-03-01T08:03:52;43.40;;;19.47;;
18695;SDS011;22617;43.690;27.956;2023-03-01T08:08:57;42.87;;;19.13;;
18695;SDS011;22617;43.690;27.956;2023-03-01T08:14:00;45.70;;;19.50;;
18695;SDS011;22617;43.690;27.956;2023-03-01T08:19:04;44.50;;;19.47;;
18695;SDS011;22617;43.690;27.956;2023-03-01T08:24:10;42.97;;;17.63;;
18695;SDS011;22617;43.690;27.956;2023-03-01T08:29:13;39.20;;;18.33;;
18695;SDS011;22617;43.690;27.956;2023-03-01T08:34:17;42.77;;;18.90;;
18695;SDS011;22617;43.690;27.956;2023-03-01T08:39:23;43.90;;;19.43;;
18695;SDS011;22617;43.690;27.956;2023-03-01T08:44:27;42.23;;;19.83;;
18695;SDS011;22617;43.690;27.956;2023-03-01T08:49:30;36.67;;;17.00;;
18695;SDS011;22617;43.690;27.956;2023-03-01T08:54:36;35.40;;;16.67;;
18695;SDS011;22617;43.690;27.956;2023-03-01T08:59:40;32.20;;;15.70;;
18695;SDS011;22617;43.690;27.956;2023-03-01T09:04:43;32.23;;;15.83;;
18695;SDS011;22617;43.690;27.956;2023-03-01T09:09:48;28.20;;;14.13;;
18695;SDS011;22617;43.690;27.956;2023-03-01T09:14:55;25.03;;;12.37;;
18695;SDS011;22617;43.690;27.956;2023-03-01T09:19:58;23.00;;;11.27;;
18695;SDS011;22617;43.690;27.956;2023-03-01T09:25:05;25.63;;;12.20;;
18695;SDS011;22617;43.690;27.956;2023-03-01T09:30:10;22.93;;;11.70;;
18695;SDS011;22617;43.690;27.956;2023-03-01T09:35:14;20.53;;;11.03;;
18695;SDS011;22617;43.690;27.956;2023-03-01T09:40:20;22.10;;;10.70;;
18695;SDS011;22617;43.690;27.956;2023-03-01T09:45:27;21.33;;;10.90;;
18695;SDS011;22617;43.690;27.956;2023-03-01T09:50:41;19.87;;;9.87;;
18695;SDS011;22617;43.690;27.956;2023-03-01T09:55:50;20.13;;;10.53;;
18695;SDS011;22617;43.690;27.956;2023-03-01T10:01:00;23.53;;;11.60;;
18695;SDS011;22617;43.690;27.956;2023-03-01T10:06:12;20.17;;;10.70;;
18695;SDS011;22617;43.690;27.956;2023-03-01T10:11:37;25.10;;;11.73;;
18695;SDS011;22617;43.690;27.956;2023-03-01T10:16:43;22.13;;;11.73;;
18695;SDS011;22617;43.690;27.956;2023-03-01T10:21:54;23.90;;;11.53;;
18695;SDS011;22617;43.690;27.956;2023-03-01T10:27:06;23.53;;;12.47;;
18695;SDS011;22617;43.690;27.956;2023-03-01T10:32:15;23.77;;;12.23;;
18695;SDS011;22617;43.690;27.956;2023-03-01T10:37:21;28.27;;;13.50;;
18695;SDS011;22617;43.690;27.956;2023-03-01T10:42:29;22.57;;;11.97;;
18695;SDS011;22617;43.690;27.956;2023-03-01T10:47:34;20.87;;;11.53;;
18695;SDS011;22617;43.690;27.956;2023-03-01T10:52:40;20.70;;;11.87;;
18695;SDS011;22617;43.690;27.956;2023-03-01T10:57:45;20.23;;;12.17;;
18695;SDS011;22617;43.690;27.956;2023-03-01T11:02:50;22.67;;;11.70;;
18695;SDS011;22617;43.690;27.956;2023-03-01T11:08:05;20.93;;;11.30;;
18695;SDS011;22617;43.690;27.956;2023-03-01T11:13:15;19.13;;;10.90;;
18695;SDS011;22617;43.690;27.956;2023-03-01T11:18:20;22.67;;;13.57;;
18695;SDS011;22617;43.690;27.956;2023-03-01T11:23:46;21.80;;;12.10;;
18695;SDS011;22617;43.690;27.956;2023-03-01T11:28:51;21.10;;;12.00;;
18695;SDS011;22617;43.690;27.956;2023-03-01T11:33:59;27.87;;;13.97;;
18695;SDS011;22617;43.690;27.956;2023-03-01T11:39:15;24.37;;;13.17;;
18695;SDS011;22617;43.690;27.956;2023-03-01T11:44:27;22.77;;;13.40;;
18695;SDS011;22617;43.690;27.956;2023-03-01T11:49:52;26.63;;;15.20;;
18695;SDS011;22617;43.690;27.956;2023-03-01T11:55:09;26.47;;;14.93;;
18695;SDS011;22617;43.690;27.956;2023-03-01T12:00:26;25.13;;;14.57;;
18695;SDS011;22617;43.690;27.956;2023-03-01T12:11:32;27.80;;;14.17;;
18695;SDS011;22617;43.690;27.956;2023-03-01T12:16:55;35.23;;;18.60;;
18695;SDS011;22617;43.690;27.956;2023-03-01T12:22:09;31.87;;;17.73;;
18695;SDS011;22617;43.690;27.956;2023-03-01T12:27:32;33.97;;;18.17;;
18695;SDS011;22617;43.690;27.956;2023-03-01T12:32:54;25.23;;;13.97;;
18695;SDS011;22617;43.690;27.956;2023-03-01T12:38:08;26.43;;;14.63;;
18695;SDS011;22617;43.690;27.956;2023-03-01T12:43:31;28.37;;;15.43;;
18695;SDS011;22617;43.690;27.956;2023-03-01T12:48:50;27.03;;;14.87;;
18695;SDS011;22617;43.690;27.956;2023-03-01T12:54:05;25.47;;;13.77;;
18695;SDS011;22617;43.690;27.956;2023-03-01T12:59:15;27.53;;;13.43;;
18695;SDS011;22617;43.690;27.956;2023-03-01T13:04:29;29.27;;;15.23;;
18695;SDS011;22617;43.690;27.956;2023-03-01T13:09:40;27.10;;;14.17;;
18695;SDS011;22617;43.690;27.956;2023-03-01T13:14:47;28.00;;;15.27;;
18695;SDS011;22617;43.690;27.956;2023-03-01T13:19:58;27.77;;;13.27;;
18695;SDS011;22617;43.690;27.956;2023-03-01T13:25:15;22.90;;;12.90;;
18695;SDS011;22617;43.690;27.956;2023-03-01T13:35:44;23.90;;;13.03;;
18695;SDS011;22617;43.690;27.956;2023-03-01T13:40:58;24.63;;;13.23;;
18695;SDS011;22617;43.690;27.956;2023-03-01T13:46:07;22.03;;;12.67;;
18695;SDS011;22617;43.690;27.956;2023-03-01T13:51:30;27.03;;;13.37;;
18695;SDS011;22617;43.690;27.956;2023-03-01T13:56:36;29.50;;;14.37;;
18695;SDS011;22617;43.690;27.956;2023-03-01T14:01:42;27.77;;;13.70;;
18695;SDS011;22617;43.690;27.956;2023-03-01T14:26:31;23.30;;;12.47;;
18695;SDS011;22617;43.690;27.956;2023-03-01T14:32:25;25.73;;;12.23;;
18695;SDS011;22617;43.690;27.956;2023-03-01T15:06:47;27.43;;;13.27;;
18695;SDS011;22617;43.690;27.956;2023-03-01T15:11:53;32.87;;;14.67;;
18695;SDS011;22617;43.690;27.956;2023-03-01T15:16:56;27.87;;;14.07;;
18695;SDS011;22617;43.690;27.956;2023-03-01T15:22:02;29.90;;;15.23;;
18695;SDS011;22617;43.690;27.956;2023-03-01T15:27:14;26.07;;;13.07;;
18695;SDS011;22617;43.690;27.956;2023-03-01T15:32:24;22.77;;;12.53;;
18695;SDS011;22617;43.690;27.956;2023-03-01T15:37:40;25.47;;;13.03;;
18695;SDS011;22617;43.690;27.956;2023-03-01T15:42:49;21.70;;;11.67;;
18695;SDS011;22617;43.690;27.956;2023-03-01T15:47:53;22.00;;;12.33;;
18695;SDS011;22617;43.690;27.956;2023-03-01T15:53:03;35.87;;;17.07;;
18695;SDS011;22617;43.690;27.956;2023-03-01T15:58:09;25.30;;;13.90;;
18695;SDS011;22617;43.690;27.956;2023-03-01T16:03:15;24.80;;;12.83;;
18695;SDS011;22617;43.690;27.956;2023-03-01T16:08:24;25.60;;;13.43;;
18695;SDS011;22617;43.690;27.956;2023-03-01T16:13:28;32.10;;;16.93;;
18695;SDS011;22617;43.690;27.956;2023-03-01T16:18:32;23.20;;;12.93;;
18695;SDS011;22617;43.690;27.956;2023-03-01T16:23:37;24.03;;;12.27;;
18695;SDS011;22617;43.690;27.956;2023-03-01T16:28:41;23.20;;;11.93;;
18695;SDS011;22617;43.690;27.956;2023-03-01T16:33:45;23.47;;;11.80;;
18695;SDS011;22617;43.690;27.956;2023-03-01T16:38:53;22.60;;;11.77;;
18695;SDS011;22617;43.690;27.956;2023-03-01T16:43:57;23.97;;;12.13;;
18695;SDS011;22617;43.690;27.956;2023-03-01T16:49:01;21.73;;;11.20;;
18695;SDS011;22617;43.690;27.956;2023-03-01T16:54:06;22.77;;;12.00;;
18695;SDS011;22617;43.690;27.956;2023-03-01T16:59:10;22.13;;;11.10;;
18695;SDS011;22617;43.690;27.956;2023-03-01T17:04:13;22.63;;;11.50;;
18695;SDS011;22617;43.690;27.956;2023-03-01T17:09:19;23.03;;;11.60;;
18695;SDS011;22617;43.690;27.956;2023-03-01T17:14:23;22.67;;;11.40;;
18695;SDS011;22617;43.690;27.956;2023-03-01T17:19:27;22.73;;;10.93;;
18695;SDS011;22617;43.690;27.956;2023-03-01T17:24:33;23.43;;;12.70;;
18695;SDS011;22617;43.690;27.956;2023-03-01T17:29:36;22.00;;;11.13;;
18695;SDS011;22617;43.690;27.956;2023-03-01T17:34:40;23.47;;;12.07;;
18695;SDS011;22617;43.690;27.956;2023-03-01T17:39:45;22.50;;;12.10;;
18695;SDS011;22617;43.690;27.956;2023-03-01T17:44:49;28.53;;;15.27;;
18695;SDS011;22617;43.690;27.956;2023-03-01T17:49:55;32.73;;;16.10;;
18695;SDS011;22617;43.690;27.956;2023-03-01T17:55:00;32.50;;;15.43;;
18695;SDS011;22617;43.690;27.956;2023-03-01T18:00:05;26.73;;;13.83;;
18695;SDS011;22617;43.690;27.956;2023-03-01T18:05:12;25.00;;;13.90;;
18695;SDS011;22617;43.690;27.956;2023-03-01T18:10:17;26.13;;;13.17;;
18695;SDS011;22617;43.690;27.956;2023-03-01T18:15:21;29.07;;;13.87;;
18695;SDS011;22617;43.690;27.956;2023-03-01T18:20:25;27.83;;;13.77;;
18695;SDS011;22617;43.690;27.956;2023-03-01T18:25:30;29.57;;;14.43;;
18695;SDS011;22617;43.690;27.956;2023-03-01T18:30:37;28.80;;;13.57;;
18695;SDS011;22617;43.690;27.956;2023-03-01T18:35:42;23.80;;;13.40;;
18695;SDS011;22617;43.690;27.956;2023-03-01T18:40:53;24.40;;;12.10;;
18695;SDS011;22617;43.690;27.956;2023-03-01T18:45:57;23.53;;;11.73;;
18695;SDS011;22617;43.690;27.956;2023-03-01T18:51:08;27.33;;;13.33;;
18695;SDS011;22617;43.690;27.956;2023-03-01T18:56:14;23.13;;;11.87;;
18695;SDS011;22617;43.690;27.956;2023-03-01T19:01:19;23.30;;;11.83;;
18695;SDS011;22617;43.690;27.956;2023-03-01T19:06:26;25.13;;;12.37;;
18695;SDS011;22617;43.690;27.956;2023-03-01T19:11:33;23.90;;;11.73;;
18695;SDS011;22617;43.690;27.956;2023-03-01T19:16:38;25.87;;;12.30;;
18695;SDS011;22617;43.690;27.956;2023-03-01T19:21:42;24.17;;;12.00;;
18695;SDS011;22617;43.690;27.956;2023-03-01T19:26:58;23.63;;;11.63;;
18695;SDS011;22617;43.690;27.956;2023-03-01T19:32:01;24.93;;;12.50;;
18695;SDS011;22617;43.690;27.956;2023-03-01T19:37:05;22.80;;;11.23;;
18695;SDS011;22617;43.690;27.956;2023-03-01T19:42:13;25.93;;;12.20;;
18695;SDS011;22617;43.690;27.956;2023-03-01T19:47:16;23.30;;;11.20;;
18695;SDS011;22617;43.690;27.956;2023-03-01T19:52:20;23.57;;;11.57;;
18695;SDS011;22617;43.690;27.956;2023-03-01T19:57:25;22.97;;;11.67;;
18695;SDS011;22617;43.690;27.956;2023-03-01T20:02:28;25.70;;;12.87;;
18695;SDS011;22617;43.690;27.956;2023-03-01T20:07:32;31.07;;;14.87;;
18695;SDS011;22617;43.690;27.956;2023-03-01T20:12:37;28.23;;;13.57;;
18695;SDS011;22617;43.690;27.956;2023-03-01T20:17:41;22.93;;;12.20;;
18695;SDS011;22617;43.690;27.956;2023-03-01T20:22:45;31.33;;;16.00;;
18695;SDS011;22617;43.690;27.956;2023-03-01T20:27:49;26.43;;;14.10;;
18695;SDS011;22617;43.690;27.956;2023-03-01T20:32:53;26.43;;;13.53;;
18695;SDS011;22617;43.690;27.956;2023-03-01T20:37:57;23.57;;;12.77;;
18695;SDS011;22617;43.690;27.956;2023-03-01T20:43:02;23.93;;;12.03;;
18695;SDS011;22617;43.690;27.956;2023-03-01T20:48:05;26.00;;;12.67;;
18695;SDS011;22617;43.690;27.956;2023-03-01T20:53:09;22.30;;;11.23;;
18695;SDS011;22617;43.690;27.956;2023-03-01T20:58:14;21.90;;;10.90;;
18695;SDS011;22617;43.690;27.956;2023-03-01T21:03:17;20.70;;;10.30;;
18695;SDS011;22617;43.690;27.956;2023-03-01T21:08:21;23.63;;;10.83;;
18695;SDS011;22617;43.690;27.956;2023-03-01T21:13:26;20.63;;;10.10;;
18695;SDS011;22617;43.690;27.956;2023-03-01T21:18:30;20.93;;;10.87;;
18695;SDS011;22617;43.690;27.956;2023-03-01T21:23:35;22.07;;;10.60;;
18695;SDS011;22617;43.690;27.956;2023-03-01T21:28:41;19.77;;;10.13;;
18695;SDS011;22617;43.690;27.956;2023-03-01T21:33:46;19.30;;;9.50;;
18695;SDS011;22617;43.690;27.956;2023-03-01T21:38:51;20.60;;;10.53;;
18695;SDS011;22617;43.690;27.956;2023-03-01T21:43:56;22.30;;;10.37;;
18695;SDS011;22617;43.690;27.956;2023-03-01T21:49:02;19.90;;;9.97;;
18695;SDS011;22617;43.690;27.956;2023-03-01T21:54:06;22.60;;;10.80;;
18695;SDS011;22617;43.690;27.956;2023-03-01T21:59:12;19.23;;;10.33;;
18695;SDS011;22617;43.690;27.956;2023-03-01T22:04:17;23.67;;;11.23;;
18695;SDS011;22617;43.690;27.956;2023-03-01T22:09:25;21.53;;;10.70;;
18695;SDS011;22617;43.690;27.956;2023-03-01T22:14:30;26.63;;;10.97;;
18695;SDS011;22617;43.690;27.956;2023-03-01T22:19:34;22.03;;;10.53;;
18695;SDS011;22617;43.690;27.956;2023-03-01T22:24:38;25.63;;;12.63;;
18695;SDS011;22617;43.690;27.956;2023-03-01T22:29:42;25.17;;;11.17;;
18695;SDS011;22617;43.690;27.956;2023-03-01T22:34:46;23.63;;;11.60;;
18695;SDS011;22617;43.690;27.956;2023-03-01T22:39:49;24.73;;;11.63;;
18695;SDS011;22617;43.690;27.956;2023-03-01T22:44:54;22.17;;;10.97;;
18695;SDS011;22617;43.690;27.956;2023-03-01T22:49:58;23.53;;;11.07;;
18695;SDS011;22617;43.690;27.956;2023-03-01T22:55:03;25.63;;;11.23;;
18695;SDS011;22617;43.690;27.956;2023-03-01T23:00:09;24.93;;;11.50;;
18695;SDS011;22617;43.690;27.956;2023-03-01T23:05:14;21.90;;;11.20;;
18695;SDS011;22617;43.690;27.956;2023-03-01T23:10:17;22.47;;;11.30;;
18695;SDS011;22617;43.690;27.956;2023-03-01T23:15:22;25.83;;;11.93;;
18695;SDS011;22617;43.690;27.956;2023-03-01T23:20:26;23.50;;;11.57;;
18695;SDS011;22617;43.690;27.956;2023-03-01T23:25:29;25.73;;;12.00;;
18695;SDS011;22617;43.690;27.956;2023-03-01T23:30:34;23.43;;;11.87;;
18695;SDS011;22617;43.690;27.956;2023-03-01T23:35:38;28.63;;;13.23;;
18695;SDS011;22617;43.690;27.956;2023-03-01T23:40:41;27.10;;;12.73;;
18695;SDS011;22617;43.690;27.956;2023-03-01T23:45:46;26.17;;;12.40;;
18695;SDS011;22617;43.690;27.956;2023-03-01T23:50:50;28.70;;;12.80;;
18695;SDS011;22617;43.690;27.956;2023-03-01T23:55:53;30.17;;;13.07;;
